Crestview, FL

8:50 AM CST on December 05, 2016 (GMT -0600)
John King 2nd edition | | Change Station

Elev 138 ft 30.72 °N, 86.55 °W | Updated 13 seconds ago

Overcast
Overcast
66.4 °F
Feels Like 66.4 °F
N
2.0
Wind Variable Wind from NE

Today
High -- | Low -- °F
--% Chance of Precip.
Yesterday
High -- | Low -- °F
Precip. -- in
Pressure 29.92 in
Visibility 3.0 miles
Clouds Overcast 200 ft
Dew Point 64 °F
Humidity 91%
Rainfall 0.02 in
Snow Depth Not available.
6:29 AM 4:44 PM
Waxing Crescent, 32% visible
METAR KCEW 051353Z AUTO 04005KT 3SM BR OVC002 18/17 A2993 RMK AO2 SLP132 T01780172
Pressure 29.92 in
Visibility 3.0 miles
Clouds Overcast 200 ft
Dew Point 64 °F
Humidity 91%
Rainfall 0.02 in
Snow Depth Not available.
6:29 AM 4:44 PM
Waxing Crescent, 32% visible
METAR KCEW 051353Z AUTO 04005KT 3SM BR OVC002 18/17 A2993 RMK AO2 SLP132 T01780172

10-Day Weather Forecast

Almanac

Astronomy

Dec. 05, 2016 Rise Set
Actual Time
Civil Twilight
Nautical Twilight
Astronomical Twilight
Moon
Length of Visible Light
Length of Day
Tomorrow will be .
, % of the Moon is Illuminated

Today's Extremes

State Highs State Lows

Community

WunderPhotos

Upload Photos

1,955,785 photos uploaded!

WunderBlog® & News

Nearby

Air Quality

  Air Quality AQ Index Pollutant
Not available.

Snow Depth

Station Depth Elevation

Earthquake Activity

City Distance Mag. Time & Date
Minimum magnitude displayed is 2.5.

Coastal Water Temperatures

Place Temperature

Stations

Nearby Weather Stations

Station Location Temp. Windchill Dew Point Humidity Wind Precip. Elev Updated Type
                   

Watches & Warnings

There are currently no watches in effect.